Time;durP1;ratioP1;P1;durP2;ratioP2;P2;SDS_P1;SDS_P2;PMS_P1;PMS_P2;Temp;Humidity;BMP_temperature;BMP_pressure;BME280_temperature;BME280_humidity;BME280_pressure;Samples;Min_cycle;Max_cycle;Signal;HPM_P1;HPM_P2
2022/10/30 00:01:07;;;;;;;12.02;3.50;;;;;;;;;;4964724;28;20472;-78
2022/10/30 00:03:33;;;;;;;10.57;2.53;;;;;;;;;;4956728;28;20511;-78
2022/10/30 00:05:59;;;;;;;18.98;4.65;;;;;;;;;;4975853;28;20030;-78
2022/10/30 00:08:25;;;;;;;7.95;3.13;;;;;;;;;;4971348;28;20419;-78
2022/10/30 00:10:52;;;;;;;12.25;2.88;;;;;;;;;;4977187;28;20039;-78
2022/10/30 00:13:18;;;;;;;10.80;3.10;;;;;;;;;;4979213;28;20027;-78
2022/10/30 00:15:48;;;;;;;11.10;3.30;;;;;;;;;;4964273;28;20496;-78
2022/10/30 00:18:14;;;;;;;10.43;3.00;;;;;;;;;;4986478;28;20042;-78
2022/10/30 00:20:40;;;;;;;13.13;3.10;;;;;;;;;;4971941;28;20026;-77
2022/10/30 00:23:07;;;;;;;12.77;3.05;;;;;;;;;;4968626;28;20023;-78
2022/10/30 00:25:35;;;;;;;8.65;3.30;;;;;;;;;;4971474;28;20719;-77
2022/10/30 00:28:01;;;;;;;9.43;2.75;;;;;;;;;;4967321;28;20043;-78
2022/10/30 00:30:27;;;;;;;11.80;3.22;;;;;;;;;;4973914;28;20035;-77
2022/10/30 00:32:53;;;;;;;11.98;3.15;;;;;;;;;;4970531;28;20031;-78
2022/10/30 00:35:19;;;;;;;10.30;2.97;;;;;;;;;;4973259;28;20066;-77
2022/10/30 00:37:45;;;;;;;8.20;2.90;;;;;;;;;;4970968;28;20353;-78
2022/10/30 00:40:15;;;;;;;10.07;3.25;;;;;;;;;;4987950;28;20058;-78
2022/10/30 00:42:41;;;;;;;6.90;2.97;;;;;;;;;;4964017;28;20033;-81
2022/10/30 00:45:11;;;;;;;14.57;3.20;;;;;;;;;;4972950;28;20027;-77
2022/10/30 00:47:42;;;;;;;14.25;4.35;;;;;;;;;;4971419;28;20534;-78
2022/10/30 00:50:15;;;;;;;8.98;2.47;;;;;;;;;;4965137;28;20675;-77
2022/10/30 00:52:47;;;;;;;9.57;2.97;;;;;;;;;;4966798;28;20031;-78
2022/10/30 00:55:16;;;;;;;11.52;3.42;;;;;;;;;;4988258;28;20434;-77
2022/10/30 00:57:42;;;;;;;15.93;2.85;;;;;;;;;;4987383;28;20030;-78
2022/10/30 01:00:09;;;;;;;10.82;4.22;;;;;;;;;;4971458;28;20678;-78
2022/10/30 01:02:35;;;;;;;11.18;3.83;;;;;;;;;;4971629;28;20431;-78
2022/10/30 01:05:02;;;;;;;9.15;4.18;;;;;;;;;;4974765;28;20056;-78
2022/10/30 01:07:28;;;;;;;12.10;3.00;;;;;;;;;;4975311;28;20022;-78
2022/10/30 01:09:54;;;;;;;10.00;3.17;;;;;;;;;;4974560;28;20027;-78
2022/10/30 01:12:20;;;;;;;8.88;2.90;;;;;;;;;;4969187;28;20062;-79
2022/10/30 01:14:50;;;;;;;9.68;3.28;;;;;;;;;;4979786;28;20046;-78
2022/10/30 01:17:31;;;;;;;13.63;3.35;;;;;;;;;;4975009;28;20101;-78
2022/10/30 01:20:00;;;;;;;11.85;3.33;;;;;;;;;;4986563;28;20053;-78
2022/10/30 01:22:32;;;;;;;10.27;2.80;;;;;;;;;;4972131;28;20077;-78
2022/10/30 01:25:08;;;;;;;10.75;3.47;;;;;;;;;;4979759;28;20030;-78
2022/10/30 01:27:40;;;;;;;12.52;3.75;;;;;;;;;;4966491;28;20034;-78
2022/10/30 01:30:15;;;;;;;16.80;3.90;;;;;;;;;;4972401;28;20161;-79
2022/10/30 01:32:51;;;;;;;12.18;4.20;;;;;;;;;;4984698;28;20141;-78
2022/10/30 01:35:17;;;;;;;;;;;;;;;;;;4969050;28;20414;-78
2022/10/30 01:37:49;;;;;;;6.45;2.97;;;;;;;;;;4971288;28;19945;-78
2022/10/30 01:40:16;;;;;;;10.20;2.83;;;;;;;;;;4964723;28;20389;-78
2022/10/30 01:42:42;;;;;;;14.63;3.45;;;;;;;;;;4966469;28;20380;-78
2022/10/30 01:45:10;;;;;;;9.35;3.47;;;;;;;;;;4979161;28;20015;-78
2022/10/30 01:47:45;;;;;;;9.05;2.70;;;;;;;;;;4971610;28;20030;-77
2022/10/30 01:50:11;;;;;;;10.38;2.83;;;;;;;;;;4969098;28;20067;-77
2022/10/30 01:52:49;;;;;;;9.07;3.47;;;;;;;;;;4964025;28;20524;-78
2022/10/30 01:55:22;;;;;;;11.73;3.95;;;;;;;;;;4985276;28;20038;-78
2022/10/30 01:57:51;;;;;;;13.60;3.58;;;;;;;;;;4969824;28;20430;-79
2022/10/30 02:00:19;;;;;;;12.38;3.50;;;;;;;;;;4969056;28;20133;-80
2022/10/30 02:02:45;;;;;;;10.05;3.13;;;;;;;;;;4968363;28;20488;-78
2022/10/30 02:05:14;;;;;;;12.65;3.67;;;;;;;;;;4964645;28;20041;-78
2022/10/30 02:07:40;;;;;;;18.45;4.03;;;;;;;;;;4965118;28;20129;-78
2022/10/30 02:10:06;;;;;;;18.05;4.20;;;;;;;;;;4981335;28;20033;-78
2022/10/30 02:12:32;;;;;;;13.45;3.30;;;;;;;;;;4980356;28;20508;-78
2022/10/30 02:15:00;;;;;;;12.05;2.90;;;;;;;;;;4964498;28;20027;-79
2022/10/30 02:17:27;;;;;;;8.77;3.33;;;;;;;;;;4977971;28;20074;-78
2022/10/30 02:19:53;;;;;;;11.00;3.80;;;;;;;;;;4969653;28;20038;-78
2022/10/30 02:22:19;;;;;;;20.70;4.38;;;;;;;;;;4965883;28;20419;-78
2022/10/30 02:24:45;;;;;;;13.88;3.42;;;;;;;;;;4979922;28;20080;-78
2022/10/30 02:27:11;;;;;;;12.50;3.47;;;;;;;;;;4963632;28;20050;-77
2022/10/30 02:29:37;;;;;;;8.68;3.17;;;;;;;;;;4964839;28;20496;-78
2022/10/30 02:32:04;;;;;;;12.32;3.70;;;;;;;;;;4981337;28;20031;-78
2022/10/30 02:34:30;;;;;;;15.25;3.67;;;;;;;;;;4980777;28;20030;-78
2022/10/30 02:36:56;;;;;;;11.25;4.78;;;;;;;;;;4967503;28;20073;-78
2022/10/30 02:39:22;;;;;;;12.60;3.33;;;;;;;;;;4961356;28;20031;-78
2022/10/30 02:41:48;;;;;;;15.38;3.58;;;;;;;;;;4970164;28;20106;-78
2022/10/30 02:44:14;;;;;;;8.68;2.97;;;;;;;;;;4956575;28;20034;-78
2022/10/30 02:46:40;;;;;;;10.23;3.10;;;;;;;;;;4954254;28;20832;-78
2022/10/30 02:49:07;;;;;;;15.30;3.83;;;;;;;;;;4983346;28;20121;-78
2022/10/30 02:51:33;;;;;;;12.52;2.97;;;;;;;;;;4980633;28;20026;-78
2022/10/30 02:53:59;;;;;;;13.82;3.80;;;;;;;;;;4974080;28;20043;-78
2022/10/30 02:56:26;;;;;;;11.32;3.22;;;;;;;;;;4971443;28;20612;-77
2022/10/30 02:58:52;;;;;;;12.10;3.25;;;;;;;;;;4986548;28;20045;-78
2022/10/30 03:01:19;;;;;;;11.48;3.45;;;;;;;;;;4974776;28;20019;-78
2022/10/30 03:03:45;;;;;;;14.60;3.90;;;;;;;;;;4981855;28;20033;-78
2022/10/30 03:06:14;;;;;;;9.45;2.85;;;;;;;;;;4972763;28;20034;-78
2022/10/30 03:08:40;;;;;;;20.05;5.03;;;;;;;;;;4985220;28;20109;-78
2022/10/30 03:11:07;;;;;;;10.30;2.97;;;;;;;;;;4978705;28;20027;-78
2022/10/30 03:13:34;;;;;;;11.52;3.10;;;;;;;;;;4972391;28;20181;-77
2022/10/30 03:16:01;;;;;;;10.65;3.17;;;;;;;;;;4990509;28;20045;-78
2022/10/30 03:18:28;;;;;;;11.23;2.78;;;;;;;;;;4971335;28;20031;-77
2022/10/30 03:21:02;;;;;;;12.02;2.88;;;;;;;;;;4980433;28;20598;-78
2022/10/30 03:23:28;;;;;;;9.85;2.42;;;;;;;;;;4971950;28;20392;-78
2022/10/30 03:25:55;;;;;;;10.43;3.10;;;;;;;;;;4979782;28;20502;-78
2022/10/30 03:28:25;;;;;;;13.02;3.00;;;;;;;;;;4970239;28;20540;-78
2022/10/30 03:30:52;;;;;;;13.05;2.92;;;;;;;;;;4980584;28;20057;-79
2022/10/30 03:33:18;;;;;;;7.30;3.35;;;;;;;;;;4986190;28;20038;-79
2022/10/30 03:35:44;;;;;;;9.13;3.28;;;;;;;;;;4985932;28;20023;-78
2022/10/30 03:38:12;;;;;;;12.55;3.05;;;;;;;;;;4971753;28;20038;-78
2022/10/30 03:40:38;;;;;;;10.70;3.47;;;;;;;;;;4975308;28;20081;-78
2022/10/30 03:43:04;;;;;;;13.75;2.83;;;;;;;;;;4976284;28;20023;-78
2022/10/30 03:45:32;;;;;;;19.90;3.85;;;;;;;;;;4969719;28;20156;-79
2022/10/30 03:47:59;;;;;;;9.45;3.67;;;;;;;;;;4966544;28;20105;-78
2022/10/30 03:50:25;;;;;;;10.77;3.53;;;;;;;;;;4967445;28;20031;-78
2022/10/30 03:52:53;;;;;;;7.88;3.17;;;;;;;;;;4972667;28;20031;-78
2022/10/30 03:55:19;;;;;;;16.02;3.75;;;;;;;;;;4972367;28;20062;-78
2022/10/30 03:57:45;;;;;;;8.63;3.67;;;;;;;;;;4970829;28;20069;-78
2022/10/30 04:00:11;;;;;;;12.10;4.53;;;;;;;;;;4964464;28;20046;-78
2022/10/30 04:02:37;;;;;;;7.72;2.90;;;;;;;;;;4973709;28;20416;-78
2022/10/30 04:05:04;;;;;;;6.53;2.75;;;;;;;;;;4962752;28;20038;-78
2022/10/30 04:07:30;;;;;;;10.35;3.28;;;;;;;;;;4988355;28;20119;-78
2022/10/30 04:09:56;;;;;;;12.38;3.17;;;;;;;;;;4988676;28;20054;-78
2022/10/30 04:12:22;;;;;;;9.32;3.25;;;;;;;;;;4965605;28;20023;-80
2022/10/30 04:14:48;;;;;;;13.05;3.70;;;;;;;;;;4983958;28;20035;-78
2022/10/30 04:17:14;;;;;;;11.77;3.70;;;;;;;;;;4968476;28;20074;-77
2022/10/30 04:19:40;;;;;;;15.48;4.93;;;;;;;;;;4982018;28;20035;-78
2022/10/30 04:22:06;;;;;;;16.08;3.63;;;;;;;;;;4967074;28;20373;-78
2022/10/30 04:24:32;;;;;;;19.58;3.58;;;;;;;;;;4970243;28;20019;-78
2022/10/30 04:26:58;;;;;;;11.63;3.75;;;;;;;;;;4969054;28;20030;-77
2022/10/30 04:29:25;;;;;;;16.58;4.70;;;;;;;;;;4987830;28;20105;-78
2022/10/30 04:31:51;;;;;;;10.70;4.00;;;;;;;;;;4986768;28;20026;-78
2022/10/30 04:34:17;;;;;;;12.68;3.35;;;;;;;;;;4968318;28;20035;-77
2022/10/30 04:36:43;;;;;;;10.70;3.53;;;;;;;;;;4977631;28;20474;-78
2022/10/30 04:39:09;;;;;;;12.40;3.78;;;;;;;;;;4979374;28;20038;-78
2022/10/30 04:41:35;;;;;;;14.98;4.55;;;;;;;;;;4960981;28;20602;-78
2022/10/30 04:44:01;;;;;;;10.90;4.40;;;;;;;;;;4980789;28;20085;-78
2022/10/30 04:46:27;;;;;;;5.90;3.13;;;;;;;;;;4968160;28;20023;-79
2022/10/30 04:48:54;;;;;;;10.65;3.25;;;;;;;;;;4965958;28;20039;-79
2022/10/30 04:51:20;;;;;;;11.40;3.83;;;;;;;;;;4977501;28;20376;-78
2022/10/30 04:53:46;;;;;;;9.27;2.83;;;;;;;;;;4976682;28;20043;-79
2022/10/30 04:56:12;;;;;;;11.73;2.88;;;;;;;;;;4973151;28;20035;-79
2022/10/30 04:58:39;;;;;;;6.85;2.78;;;;;;;;;;4981537;28;20392;-78
2022/10/30 05:01:06;;;;;;;12.82;2.85;;;;;;;;;;4974694;28;20029;-78
2022/10/30 05:03:33;;;;;;;12.50;3.47;;;;;;;;;;4960724;28;20023;-79
2022/10/30 05:06:04;;;;;;;10.18;3.72;;;;;;;;;;4971035;28;20492;-78
2022/10/30 05:08:30;;;;;;;8.52;2.67;;;;;;;;;;4966251;28;20027;-78
2022/10/30 05:10:56;;;;;;;6.78;3.75;;;;;;;;;;4963993;28;20512;-78
2022/10/30 05:13:23;;;;;;;4.22;1.70;;;;;;;;;;4983784;28;20029;-78
2022/10/30 05:15:49;;;;;;;4.32;1.83;;;;;;;;;;4977869;28;20031;-78
2022/10/30 05:18:15;;;;;;;4.18;1.98;;;;;;;;;;4966479;28;20500;-78
2022/10/30 05:20:41;;;;;;;5.65;1.88;;;;;;;;;;4984780;28;20053;-79
2022/10/30 05:23:07;;;;;;;4.50;2.05;;;;;;;;;;4971966;28;20470;-77
2022/10/30 05:25:34;;;;;;;6.53;2.13;;;;;;;;;;4972630;28;20034;-78
2022/10/30 05:28:01;;;;;;;6.07;1.83;;;;;;;;;;4962803;28;20019;-78
2022/10/30 05:30:29;;;;;;;2.97;1.73;;;;;;;;;;4963750;28;20019;-78
2022/10/30 05:33:03;;;;;;;2.20;1.73;;;;;;;;;;4971265;28;20026;-78
2022/10/30 05:35:31;;;;;;;3.42;1.98;;;;;;;;;;4965172;28;20023;-78
2022/10/30 05:37:58;;;;;;;5.38;2.03;;;;;;;;;;4969200;28;20015;-78
2022/10/30 05:40:24;;;;;;;5.32;2.00;;;;;;;;;;4971146;28;20038;-78
2022/10/30 05:42:50;;;;;;;4.07;2.00;;;;;;;;;;4972493;28;20090;-78
2022/10/30 05:45:16;;;;;;;4.47;1.90;;;;;;;;;;4988746;28;20027;-78
2022/10/30 05:47:42;;;;;;;6.65;1.67;;;;;;;;;;4971097;28;20114;-78
2022/10/30 05:50:10;;;;;;;7.28;3.22;;;;;;;;;;4971285;28;20022;-77
2022/10/30 05:52:36;;;;;;;3.95;1.60;;;;;;;;;;4970626;28;20522;-78
2022/10/30 05:55:03;;;;;;;2.45;1.70;;;;;;;;;;4969422;28;20043;-78
2022/10/30 05:57:31;;;;;;;5.88;2.00;;;;;;;;;;4959962;28;20035;-77
2022/10/30 05:59:58;;;;;;;1.33;1.23;;;;;;;;;;4983345;28;20035;-77
2022/10/30 06:02:24;;;;;;;2.53;1.38;;;;;;;;;;4975613;28;20038;-78
2022/10/30 06:04:50;;;;;;;3.65;2.03;;;;;;;;;;4975875;28;20016;-78
2022/10/30 06:07:16;;;;;;;2.67;1.67;;;;;;;;;;4967512;28;20734;-78
2022/10/30 06:09:42;;;;;;;1.90;1.55;;;;;;;;;;4970498;28;20041;-78
2022/10/30 06:12:08;;;;;;;2.65;1.60;;;;;;;;;;4969412;28;20030;-77
2022/10/30 06:14:34;;;;;;;1.60;1.50;;;;;;;;;;4971242;28;20470;-78
2022/10/30 06:17:00;;;;;;;2.10;1.92;;;;;;;;;;4973613;28;20023;-78
2022/10/30 06:19:26;;;;;;;2.35;1.52;;;;;;;;;;4972893;28;20034;-78
2022/10/30 06:21:53;;;;;;;1.85;1.50;;;;;;;;;;4973279;28;20027;-78
2022/10/30 06:24:19;;;;;;;1.50;1.40;;;;;;;;;;4970955;28;20121;-78
2022/10/30 06:26:45;;;;;;;3.88;1.58;;;;;;;;;;4970227;28;20060;-78
2022/10/30 06:29:12;;;;;;;4.47;1.73;;;;;;;;;;4973566;28;20523;-77
2022/10/30 06:31:38;;;;;;;3.80;1.70;;;;;;;;;;4975122;28;20031;-77
2022/10/30 06:34:04;;;;;;;5.38;1.50;;;;;;;;;;4973345;28;20057;-77
2022/10/30 06:36:30;;;;;;;3.63;1.80;;;;;;;;;;4968043;28;20051;-79
2022/10/30 06:38:56;;;;;;;3.65;2.13;;;;;;;;;;4983007;28;20038;-78
2022/10/30 06:41:22;;;;;;;2.50;1.45;;;;;;;;;;4975715;28;20019;-79
2022/10/30 06:43:49;;;;;;;3.22;1.65;;;;;;;;;;4990293;28;20030;-78
2022/10/30 06:46:15;;;;;;;5.05;1.92;;;;;;;;;;4972553;28;20031;-78
2022/10/30 06:48:41;;;;;;;2.95;1.58;;;;;;;;;;4977967;28;20031;-78
2022/10/30 06:51:07;;;;;;;7.70;2.47;;;;;;;;;;4969533;28;20023;-79
2022/10/30 06:53:33;;;;;;;4.00;1.83;;;;;;;;;;4980442;28;20057;-78
2022/10/30 06:56:00;;;;;;;4.72;1.70;;;;;;;;;;4984723;28;20030;-78
2022/10/30 06:58:27;;;;;;;4.18;1.80;;;;;;;;;;4987243;28;20034;-78
2022/10/30 07:00:53;;;;;;;2.63;1.75;;;;;;;;;;4978494;28;20038;-79
2022/10/30 07:03:20;;;;;;;4.55;1.98;;;;;;;;;;4965248;28;20381;-79
2022/10/30 07:05:46;;;;;;;9.20;2.60;;;;;;;;;;4967479;28;20034;-78
2022/10/30 07:08:12;;;;;;;3.15;1.80;;;;;;;;;;4979250;28;20523;-78
2022/10/30 07:10:38;;;;;;;4.32;1.95;;;;;;;;;;4975309;28;20078;-79
2022/10/30 07:13:04;;;;;;;7.32;2.40;;;;;;;;;;4991026;28;20031;-79
2022/10/30 07:15:31;;;;;;;10.68;2.60;;;;;;;;;;4982916;28;20037;-79
2022/10/30 07:18:04;;;;;;;3.33;1.60;;;;;;;;;;4968676;28;20022;-78
2022/10/30 07:20:31;;;;;;;3.50;2.05;;;;;;;;;;4979653;28;20035;-79
2022/10/30 07:22:57;;;;;;;5.10;2.28;;;;;;;;;;4985163;28;20027;-78
2022/10/30 07:25:24;;;;;;;6.05;1.83;;;;;;;;;;4989836;28;20074;-78
2022/10/30 07:27:51;;;;;;;5.55;2.08;;;;;;;;;;4984069;28;20035;-78
2022/10/30 07:30:19;;;;;;;7.53;2.00;;;;;;;;;;4965953;28;20357;-78
2022/10/30 07:32:45;;;;;;;6.47;2.50;;;;;;;;;;4978190;28;20054;-78
2022/10/30 07:35:13;;;;;;;3.88;1.98;;;;;;;;;;4976233;28;20042;-78
2022/10/30 07:37:40;;;;;;;5.90;2.00;;;;;;;;;;4983891;28;20157;-78
2022/10/30 07:40:06;;;;;;;9.20;2.15;;;;;;;;;;4973503;28;20036;-78
2022/10/30 07:42:33;;;;;;;4.90;2.30;;;;;;;;;;4968931;28;20487;-78
2022/10/30 07:44:59;;;;;;;8.07;2.67;;;;;;;;;;4972155;28;20027;-77
2022/10/30 07:47:25;;;;;;;7.22;2.00;;;;;;;;;;4985440;28;20027;-77
2022/10/30 07:49:51;;;;;;;6.20;2.10;;;;;;;;;;4970104;28;20042;-77
2022/10/30 07:52:18;;;;;;;7.90;2.25;;;;;;;;;;4969350;28;20026;-79
2022/10/30 07:54:44;;;;;;;10.82;2.33;;;;;;;;;;4977739;28;20051;-78
2022/10/30 07:57:10;;;;;;;7.60;3.08;;;;;;;;;;4973948;28;20049;-79
2022/10/30 07:59:36;;;;;;;6.32;1.98;;;;;;;;;;4977934;28;20039;-79
2022/10/30 08:02:02;;;;;;;6.45;2.20;;;;;;;;;;4988657;28;20067;-78
2022/10/30 08:04:28;;;;;;;5.28;2.00;;;;;;;;;;4969032;28;20029;-78
2022/10/30 08:06:54;;;;;;;2.75;1.92;;;;;;;;;;4971842;28;20042;-78
2022/10/30 08:09:20;;;;;;;7.97;2.30;;;;;;;;;;4971918;28;20022;-78
2022/10/30 08:11:46;;;;;;;6.50;1.77;;;;;;;;;;4992176;28;20023;-78
2022/10/30 08:14:13;;;;;;;5.00;2.10;;;;;;;;;;4967314;28;20058;-79
2022/10/30 08:16:39;;;;;;;8.38;2.75;;;;;;;;;;4965757;28;20031;-78
2022/10/30 08:19:05;;;;;;;6.25;2.20;;;;;;;;;;4972479;28;20031;-79
2022/10/30 08:21:31;;;;;;;8.02;2.60;;;;;;;;;;4979469;28;20023;-79
2022/10/30 08:23:57;;;;;;;4.50;1.75;;;;;;;;;;4964521;28;20499;-79
2022/10/30 08:26:23;;;;;;;4.18;2.00;;;;;;;;;;4983827;28;20059;-79
2022/10/30 08:28:49;;;;;;;6.85;2.22;;;;;;;;;;4986893;28;20046;-80
2022/10/30 08:31:15;;;;;;;13.40;2.33;;;;;;;;;;4976296;28;20030;-80
2022/10/30 08:33:42;;;;;;;7.57;2.78;;;;;;;;;;4971918;28;20460;-79
2022/10/30 08:36:08;;;;;;;5.97;2.53;;;;;;;;;;4967763;28;20059;-79
2022/10/30 08:38:34;;;;;;;8.55;2.38;;;;;;;;;;4977710;28;20042;-80
2022/10/30 08:41:01;;;;;;;10.80;2.65;;;;;;;;;;4965443;28;20046;-80
2022/10/30 08:43:27;;;;;;;7.22;2.90;;;;;;;;;;4970102;28;20023;-79
2022/10/30 08:45:53;;;;;;;7.55;2.13;;;;;;;;;;4982515;28;20109;-79
2022/10/30 08:48:19;;;;;;;5.07;2.13;;;;;;;;;;4969424;28;20022;-79
2022/10/30 08:50:45;;;;;;;8.90;3.35;;;;;;;;;;4965990;28;20042;-78
2022/10/30 08:53:12;;;;;;;7.03;2.50;;;;;;;;;;4961473;28;20030;-78
2022/10/30 08:55:38;;;;;;;6.63;2.33;;;;;;;;;;4979980;28;20161;-77
2022/10/30 08:58:04;;;;;;;21.80;3.88;;;;;;;;;;4972527;28;20424;-79
2022/10/30 09:00:30;;;;;;;10.38;2.42;;;;;;;;;;4971250;28;20019;-78
2022/10/30 09:02:57;;;;;;;4.93;2.40;;;;;;;;;;4983823;28;20023;-79
2022/10/30 09:05:23;;;;;;;11.88;3.38;;;;;;;;;;4978304;28;20027;-78
2022/10/30 09:07:49;;;;;;;6.57;2.50;;;;;;;;;;4984328;28;20396;-77
2022/10/30 09:10:15;;;;;;;6.45;3.08;;;;;;;;;;4968810;28;20456;-79
2022/10/30 09:12:41;;;;;;;8.10;2.10;;;;;;;;;;4968233;28;20026;-79
2022/10/30 09:15:08;;;;;;;7.55;2.72;;;;;;;;;;4968048;28;20086;-79
2022/10/30 09:17:34;;;;;;;7.07;2.78;;;;;;;;;;4982914;28;20023;-79
2022/10/30 09:20:00;;;;;;;6.90;2.65;;;;;;;;;;4969497;28;20093;-79
2022/10/30 09:22:26;;;;;;;8.57;2.88;;;;;;;;;;4981904;28;20683;-78
2022/10/30 09:24:52;;;;;;;7.18;2.33;;;;;;;;;;4977050;28;20026;-79
2022/10/30 09:27:18;;;;;;;6.53;2.83;;;;;;;;;;4961499;28;20117;-78
2022/10/30 09:29:45;;;;;;;10.90;3.05;;;;;;;;;;4967464;28;20040;-80
2022/10/30 09:32:11;;;;;;;8.52;2.88;;;;;;;;;;4967341;28;20161;-76
2022/10/30 09:34:38;;;;;;;8.93;3.47;;;;;;;;;;4968630;28;21354;-79
2022/10/30 09:37:05;;;;;;;9.45;2.40;;;;;;;;;;4970860;28;20066;-81
2022/10/30 09:39:31;;;;;;;6.18;2.72;;;;;;;;;;4973805;28;20555;-79
2022/10/30 09:42:00;;;;;;;5.35;2.72;;;;;;;;;;4972918;28;20022;-80
2022/10/30 09:44:29;;;;;;;8.40;2.10;;;;;;;;;;4970078;28;20507;-81
2022/10/30 09:46:55;;;;;;;8.80;2.92;;;;;;;;;;4975861;28;20025;-79
2022/10/30 09:49:22;;;;;;;11.40;2.70;;;;;;;;;;4971644;28;20037;-78
2022/10/30 09:51:56;;;;;;;9.93;2.28;;;;;;;;;;4971723;28;20110;-81
2022/10/30 09:54:39;;;;;;;13.93;3.55;;;;;;;;;;4970985;28;20043;-79
2022/10/30 09:57:30;;;;;;;7.05;2.50;;;;;;;;;;4973380;28;20031;-78
2022/10/30 09:59:56;;;;;;;9.65;3.28;;;;;;;;;;4975032;28;20417;-80
2022/10/30 10:02:27;;;;;;;7.18;2.80;;;;;;;;;;4973396;28;20077;-77
2022/10/30 10:05:20;;;;;;;7.38;2.55;;;;;;;;;;4969361;28;20015;-78
2022/10/30 10:07:48;;;;;;;7.97;2.08;;;;;;;;;;4968887;28;20058;-79
2022/10/30 10:10:18;;;;;;;7.22;2.80;;;;;;;;;;4967659;28;20415;-78
2022/10/30 10:12:46;;;;;;;7.30;2.20;;;;;;;;;;4973610;28;20031;-78
2022/10/30 10:15:41;;;;;;;7.07;2.30;;;;;;;;;;4970630;28;20038;-78
2022/10/30 10:18:16;;;;;;;9.43;2.42;;;;;;;;;;4971919;28;20038;-78
2022/10/30 10:20:44;;;;;;;9.32;2.55;;;;;;;;;;4972450;28;20053;-78
2022/10/30 10:23:26;;;;;;;4.40;3.28;;;;;;;;;;4968596;28;20029;-79
2022/10/30 10:25:53;;;;;;;6.57;2.10;;;;;;;;;;4983632;28;20435;-79
2022/10/30 10:28:38;;;;;;;5.40;2.58;;;;;;;;;;4971553;28;20027;-78
2022/10/30 10:31:04;;;;;;;6.73;2.80;;;;;;;;;;4973997;28;20423;-78
2022/10/30 10:33:42;;;;;;;5.78;2.53;;;;;;;;;;4971256;28;20274;-78
2022/10/30 10:36:09;;;;;;;6.85;2.28;;;;;;;;;;4968896;28;20031;-76
2022/10/30 10:39:13;;;;;;;8.10;2.40;;;;;;;;;;4972430;28;20026;-79
2022/10/30 10:41:49;;;;;;;9.88;2.70;;;;;;;;;;4932140;29;20038;-78
2022/10/30 10:44:23;;;;;;;9.50;2.30;;;;;;;;;;4917264;29;20079;-78
2022/10/30 10:47:08;;;;;;;8.07;2.72;;;;;;;;;;4957170;28;20117;-78
2022/10/30 10:49:52;;;;;;;6.67;2.43;;;;;;;;;;4967412;28;20070;-78
2022/10/30 10:52:21;;;;;;;5.50;2.10;;;;;;;;;;4956618;28;20035;-77
2022/10/30 10:54:54;;;;;;;7.90;2.55;;;;;;;;;;4965105;28;20049;-77
2022/10/30 10:57:22;;;;;;;8.73;3.22;;;;;;;;;;4966988;28;20022;-78
2022/10/30 10:59:52;;;;;;;6.47;2.05;;;;;;;;;;4967670;28;20034;-78
2022/10/30 11:02:38;;;;;;;8.77;2.50;;;;;;;;;;4978109;28;20026;-78
2022/10/30 11:05:13;;;;;;;4.60;1.98;;;;;;;;;;4974661;28;20089;-77
2022/10/30 11:07:45;;;;;;;8.90;3.25;;;;;;;;;;4967988;28;20573;-76
2022/10/30 11:10:12;;;;;;;6.65;2.72;;;;;;;;;;4971627;28;20023;-79
2022/10/30 11:12:39;;;;;;;5.43;2.00;;;;;;;;;;4967407;28;20038;-77
2022/10/30 11:15:25;;;;;;;7.70;2.20;;;;;;;;;;4974024;28;20560;-78
2022/10/30 11:18:08;;;;;;;4.80;2.10;;;;;;;;;;4966978;28;20030;-76
2022/10/30 11:20:42;;;;;;;5.00;2.00;;;;;;;;;;4973021;28;20437;-78
2022/10/30 11:23:27;;;;;;;7.07;2.78;;;;;;;;;;4980529;28;20106;-77
2022/10/30 11:25:53;;;;;;;8.55;2.40;;;;;;;;;;4988690;28;20153;-77
2022/10/30 11:28:31;;;;;;;6.00;2.78;;;;;;;;;;4974828;28;20081;-77
2022/10/30 11:31:16;;;;;;;6.63;2.13;;;;;;;;;;4973898;28;20361;-79
2022/10/30 11:33:42;;;;;;;7.53;2.47;;;;;;;;;;4984730;28;20045;-77
2022/10/30 11:36:09;;;;;;;6.20;2.85;;;;;;;;;;4966164;28;20409;-76
2022/10/30 11:38:35;;;;;;;6.47;2.28;;;;;;;;;;4985307;28;20033;-78
2022/10/30 11:41:01;;;;;;;8.23;2.80;;;;;;;;;;4970001;28;20038;-77
2022/10/30 11:43:28;;;;;;;10.13;3.25;;;;;;;;;;4968916;28;20049;-77
2022/10/30 11:45:54;;;;;;;5.82;3.05;;;;;;;;;;4971733;28;20785;-77
2022/10/30 11:48:23;;;;;;;6.30;2.10;;;;;;;;;;4976297;28;20027;-77
2022/10/30 11:50:50;;;;;;;7.55;2.22;;;;;;;;;;4974093;28;20030;-79
2022/10/30 11:53:21;;;;;;;8.00;3.15;;;;;;;;;;4972495;28;20653;-78
2022/10/30 11:55:48;;;;;;;4.88;2.67;;;;;;;;;;4970298;28;20109;-76
2022/10/30 11:58:23;;;;;;;5.72;2.22;;;;;;;;;;4977018;28;20041;-78
2022/10/30 12:00:58;;;;;;;6.45;2.25;;;;;;;;;;4999729;28;20023;-77
2022/10/30 12:03:34;;;;;;;5.30;2.42;;;;;;;;;;4977161;28;20582;-77
2022/10/30 12:06:20;;;;;;;7.22;2.63;;;;;;;;;;4968513;28;20043;-77
2022/10/30 12:08:58;;;;;;;7.32;2.60;;;;;;;;;;4971173;28;20126;-77
2022/10/30 12:11:28;;;;;;;6.35;1.98;;;;;;;;;;4975175;28;20399;-77
2022/10/30 12:13:54;;;;;;;4.65;2.20;;;;;;;;;;4992812;28;20030;-78
2022/10/30 12:16:20;;;;;;;4.70;1.88;;;;;;;;;;4989112;28;20090;-77
2022/10/30 12:18:56;;;;;;;4.97;2.00;;;;;;;;;;4976473;28;20010;-77
2022/10/30 12:21:24;;;;;;;2.60;1.73;;;;;;;;;;4973274;28;20019;-77
2022/10/30 12:23:53;;;;;;;5.22;2.42;;;;;;;;;;4973454;28;20027;-77
2022/10/30 12:26:19;;;;;;;4.40;2.08;;;;;;;;;;4962653;28;20050;-78
2022/10/30 12:28:59;;;;;;;2.90;1.60;;;;;;;;;;4972184;28;20498;-77
2022/10/30 12:31:30;;;;;;;2.90;1.70;;;;;;;;;;4969418;28;20540;-77
2022/10/30 12:34:12;;;;;;;6.82;2.22;;;;;;;;;;4971818;28;20037;-77
2022/10/30 12:36:45;;;;;;;4.00;2.42;;;;;;;;;;4975794;28;20577;-77
2022/10/30 12:39:19;;;;;;;4.40;2.38;;;;;;;;;;4973153;28;20484;-78
2022/10/30 12:41:57;;;;;;;1.88;1.52;;;;;;;;;;4984170;28;20038;-77
2022/10/30 12:44:29;;;;;;;5.97;2.95;;;;;;;;;;4964682;28;20030;-77
2022/10/30 12:47:07;;;;;;;3.83;2.00;;;;;;;;;;4974446;28;20064;-77
2022/10/30 12:49:41;;;;;;;5.70;2.50;;;;;;;;;;4971524;28;20027;-78
2022/10/30 12:52:10;;;;;;;2.05;1.50;;;;;;;;;;4971826;28;20034;-77
2022/10/30 12:54:44;;;;;;;9.98;3.38;;;;;;;;;;4969945;28;20035;-77
2022/10/30 12:57:11;;;;;;;4.25;2.60;;;;;;;;;;4975028;28;20086;-77
2022/10/30 12:59:56;;;;;;;2.67;1.80;;;;;;;;;;4966643;28;20492;-76
2022/10/30 13:02:30;;;;;;;4.80;2.15;;;;;;;;;;4980280;28;20058;-77
2022/10/30 13:04:59;;;;;;;2.65;2.13;;;;;;;;;;4966350;28;20031;-77
2022/10/30 13:07:25;;;;;;;3.25;1.70;;;;;;;;;;4982829;28;20055;-77
2022/10/30 13:10:10;;;;;;;3.67;1.95;;;;;;;;;;4971536;28;20057;-78
2022/10/30 13:12:38;;;;;;;3.88;2.28;;;;;;;;;;4967184;28;20034;-78
2022/10/30 13:15:23;;;;;;;4.88;1.88;;;;;;;;;;4965284;28;20031;-78
2022/10/30 13:17:49;;;;;;;4.38;1.58;;;;;;;;;;4980551;28;20026;-77
2022/10/30 13:20:16;;;;;;;3.15;1.70;;;;;;;;;;4969607;28;20105;-77
2022/10/30 13:22:56;;;;;;;3.05;1.77;;;;;;;;;;4963995;28;20383;-77
2022/10/30 13:25:25;;;;;;;3.47;1.90;;;;;;;;;;4972959;28;20027;-77
2022/10/30 13:28:12;;;;;;;4.40;1.92;;;;;;;;;;4985860;28;20054;-77
2022/10/30 13:30:40;;;;;;;7.05;2.92;;;;;;;;;;4958805;28;20496;-77
2022/10/30 13:33:06;;;;;;;4.00;2.28;;;;;;;;;;4962466;28;20348;-77
2022/10/30 13:35:41;;;;;;;2.65;1.88;;;;;;;;;;4966099;28;20030;-78
2022/10/30 13:38:26;;;;;;;6.35;2.05;;;;;;;;;;4982850;28;20547;-77
2022/10/30 13:41:12;;;;;;;6.30;2.08;;;;;;;;;;4981437;28;20043;-78
2022/10/30 13:43:52;;;;;;;3.42;1.80;;;;;;;;;;4964122;28;20053;-77
2022/10/30 13:46:30;;;;;;;6.05;2.97;;;;;;;;;;4975240;28;20061;-76
2022/10/30 13:49:17;;;;;;;4.50;2.13;;;;;;;;;;4973738;28;20635;-77
2022/10/30 13:52:16;;;;;;;5.03;1.80;;;;;;;;;;4991747;28;20039;-77
2022/10/30 13:54:55;;;;;;;7.10;2.17;;;;;;;;;;4954170;28;20830;-77
2022/10/30 13:57:36;;;;;;;7.70;3.00;;;;;;;;;;4972595;28;20050;-77
2022/10/30 14:00:06;;;;;;;4.00;1.92;;;;;;;;;;4970972;28;20042;-77
2022/10/30 14:02:35;;;;;;;5.63;1.45;;;;;;;;;;4987714;28;20023;-77
2022/10/30 14:05:14;;;;;;;6.45;2.00;;;;;;;;;;4981765;28;20062;-82
2022/10/30 14:07:47;;;;;;;6.68;2.20;;;;;;;;;;4981808;28;20041;-77
2022/10/30 14:10:31;;;;;;;3.83;1.73;;;;;;;;;;4964686;28;20035;-77
2022/10/30 14:12:57;;;;;;;2.25;1.73;;;;;;;;;;4962371;28;20034;-77
2022/10/30 14:15:29;;;;;;;6.25;1.70;;;;;;;;;;4963196;28;20488;-77
2022/10/30 14:18:11;;;;;;;5.22;1.80;;;;;;;;;;4969413;28;20030;-77
2022/10/30 14:20:45;;;;;;;3.15;1.70;;;;;;;;;;4980617;28;20376;-76
2022/10/30 14:23:14;;;;;;;2.75;1.42;;;;;;;;;;4958959;28;20035;-76
2022/10/30 14:25:41;;;;;;;6.10;1.90;;;;;;;;;;4973482;28;20444;-77
2022/10/30 14:28:33;;;;;;;2.10;1.42;;;;;;;;;;4965292;28;20031;-77
2022/10/30 14:31:12;;;;;;;2.85;1.95;;;;;;;;;;4966860;28;20044;-76
2022/10/30 14:33:38;;;;;;;3.40;1.60;;;;;;;;;;4969807;28;20403;-76
2022/10/30 14:36:16;;;;;;;2.83;1.40;;;;;;;;;;4967518;28;20101;-76
2022/10/30 14:38:51;;;;;;;2.33;1.70;;;;;;;;;;4964780;28;20038;-76
2022/10/30 14:41:50;;;;;;;4.75;1.70;;;;;;;;;;4967624;28;20023;-76
2022/10/30 14:44:19;;;;;;;6.63;1.90;;;;;;;;;;4963565;28;20035;-77
2022/10/30 14:46:54;;;;;;;1.60;1.50;;;;;;;;;;4967557;28;20034;-77
2022/10/30 14:49:28;;;;;;;2.20;1.50;;;;;;;;;;4979253;28;20031;-75
2022/10/30 14:52:07;;;;;;;1.92;1.73;;;;;;;;;;4965811;28;20105;-78